Terminal Aerodrome Forecast
Issued by NWS

Home | Current Version | Previous Version | Graphics & Text | Print | Product List | Glossary On
Versions: 1 2 3 4 5 6 7 8 9 10 11 12
000
FTUS43 KMPX 080500
TAFRNH
TAF
KRNH 080521Z 0806/0906 28005KT P6SM SCT040
      TEMPO 0807/0811 3SM BR BKN006
     FM081500 30014G23KT P6SM SCT040
     FM090100 32005KT P6SM SKC=

USA.gov is the U.S. government's official web portal to all federal, state and local government web resources and services.